Quick Links (Output Below):   Max & Min Temps   /   Climate Reports   /   Zone Forecasts
River Forecasts   /   Forestry Forecasts   /   Aviation Forecasts   /   Radars   /   Features

Terminal Aerodrome Forecast (Fayetteville)

Pick a Site:
Arkadelphia | El Dorado | Fayetteville | Fort Smith | Harrison | Highfill | Hot Springs | Jonesboro
Little Rock | Monticello | Mountain Home | Pine Bluff | Texarkana
 Forecast 

KFYV 221740Z 2218/2318 18012KT 5SM -RA BR SCT015 BKN025
      TEMPO 2218/2220 2SM -TSRA BR SCT006 BKN015CB
     FM222000 17010KT 6SM -RA BR BKN012 BKN025
     FM230100 16009KT P6SM VCSH SCT015 BKN050
     FM230700 16006KT 4SM -RA BR OVC010
     FM231200 17008KT 6SM BR OVC012 PROB30 2312/2318 6SM -SHRA
      BKN010=


 Latest METARs (Observations) 
How to Decode METARs
17Z KFYV 221653Z 16011KT 5SM RA BR SCT012 BKN023 OVC080 12/11 A3009
         RMK AO2 LTG DSNT S RAB1555 SLP187 P0009 T01170106
         
16Z KFYV 221553Z 18010KT 10SM OVC017 12/11 A3011 RMK AO2 SLP193
         T01220106
         
15Z KFYV 221453Z 19008G15KT 10SM BKN021 BKN090 12/11 A3012 RMK AO2
         RAE14 SLP197 P0000 60024 T01170106 51008
         
14Z KFYV 221353Z 18010KT 7SM VCTS -RA FEW022 BKN040 OVC085 11/10 A3012
         RMK AO2 TSB30E45 SLP198 P0024 T01060100
         
13Z KFYV 221253Z 18013G18KT 10SM -RA OVC017 12/09 A3009 RMK AO2 LTG
         DSNT SW RAB48 SLP188 P0000 T01170094
         
12Z KFYV 221153Z 18007KT 10SM OVC018 12/09 A3010 RMK AO2 SLP190
         T01170089 10117 20106 56013
         
11Z KFYV 221053Z AUTO 18007KT 10SM OVC019 12/09 A3011 RMK AO2 SLP195
         T01170089
         
10Z KFYV 220953Z AUTO 18011KT 10SM BKN023 BKN037 11/08 A3012 RMK AO2
         SLP197 T01110083
         
09Z KFYV 220853Z AUTO 19009KT 10SM FEW028 FEW040 SCT049 11/08 A3014
         RMK AO2 SLP204 T01060083 57005
         
08Z KFYV 220753Z AUTO 17013G20KT 10SM SCT039 11/08 A3014 RMK AO2
         SLP204 T01060083
         
***** Today's Observations (Above) *****


Back to Main Page
http://www.srh.noaa.gov/lzk/qfcst.php

USA.gov is the U.S. government's official web portal to all federal, state and local government web resources and services.